Time;durP1;ratioP1;P1;durP2;ratioP2;P2;SDS_P1;SDS_P2;PMS_P1;PMS_P2;Temp;Humidity;BMP_temperature;BMP_pressure;BME280_temperature;BME280_humidity;BME280_pressure;Samples;Min_cycle;Max_cycle;Signal;HPM_P1;HPM_P2
2020/12/15 00:00:29;;;;;;;23.70;15.38;;;;;;;1.65;79.90;97025.66;1808212;79;21207;-55
2020/12/15 00:02:57;;;;;;;31.68;19.40;;;;;;;1.47;80.09;97018.88;1804795;79;21081;-55
2020/12/15 00:05:24;;;;;;;29.70;17.95;;;;;;;1.34;80.53;97022.66;1815772;78;21113;-55
2020/12/15 00:07:52;;;;;;;30.10;16.97;;;;;;;1.38;80.78;97028.52;1809303;79;21111;-55
2020/12/15 00:10:21;;;;;;;33.08;18.80;;;;;;;1.42;80.80;97021.19;1815748;79;21152;-54
2020/12/15 00:12:49;;;;;;;24.47;15.20;;;;;;;1.51;80.74;97018.35;1768645;80;22835;-55
2020/12/15 00:15:16;;;;;;;25.97;15.68;;;;;;;1.61;80.55;97015.96;1747566;80;21060;-55
2020/12/15 00:17:44;;;;;;;27.52;16.40;;;;;;;1.63;80.53;97010.36;1774587;80;21078;-55
2020/12/15 00:20:12;;;;;;;25.25;14.78;;;;;;;1.64;80.44;97022.70;1815744;79;21132;-55
2020/12/15 00:22:40;;;;;;;27.70;14.90;;;;;;;1.58;80.52;97014.77;1788903;78;21037;-55
2020/12/15 00:25:07;;;;;;;26.17;15.93;;;;;;;1.47;80.54;97021.89;1751117;80;23552;-55
2020/12/15 00:27:35;;;;;;;27.60;16.20;;;;;;;1.45;80.72;97023.21;1783964;79;21486;-55
2020/12/15 00:30:03;;;;;;;24.60;14.10;;;;;;;1.42;80.72;97010.95;1792297;79;21120;-55
2020/12/15 00:32:31;;;;;;;30.92;16.42;;;;;;;1.38;81.12;97011.91;1803034;79;21180;-55
2020/12/15 00:34:58;;;;;;;34.20;16.20;;;;;;;1.27;81.26;97017.32;1788913;80;21485;-54
2020/12/15 00:37:26;;;;;;;36.05;17.02;;;;;;;1.32;81.47;97012.09;1784540;80;21145;-55
2020/12/15 00:39:55;;;;;;;;;;;;;;;1.34;81.40;97014.98;1786254;80;21061;-55
2020/12/15 00:42:22;;;;;;;27.40;14.73;;;;;;;1.37;81.46;97017.92;1784671;79;20225;-55
2020/12/15 00:44:50;;;;;;;30.08;16.12;;;;;;;1.39;81.55;97016.15;1814120;79;21172;-55
2020/12/15 00:47:18;;;;;;;29.67;17.63;;;;;;;1.39;81.61;97011.86;1759149;80;21097;-56
2020/12/15 00:49:46;;;;;;;29.82;17.20;;;;;;;1.38;81.73;97015.73;1756100;81;21218;-55
2020/12/15 00:52:14;;;;;;;34.57;17.87;;;;;;;1.40;81.98;97013.55;1777764;80;21112;-55
2020/12/15 00:54:42;;;;;;;33.30;17.57;;;;;;;1.51;81.90;97011.96;1749741;80;21140;-55
2020/12/15 00:57:10;;;;;;;22.67;13.72;;;;;;;1.57;81.60;97014.36;1715664;83;21200;-55
2020/12/15 00:59:38;;;;;;;35.13;16.48;;;;;;;1.54;81.59;97013.16;1727279;81;21068;-55
2020/12/15 01:02:05;;;;;;;36.03;17.37;;;;;;;1.47;81.61;97016.78;1748662;82;21217;-55
2020/12/15 01:04:34;;;;;;;47.70;19.15;;;;;;;1.39;81.88;97016.98;1751617;82;21132;-56
2020/12/15 01:07:02;;;;;;;36.68;17.90;;;;;;;1.28;82.09;97017.28;1737677;81;21137;-54
2020/12/15 01:09:30;;;;;;;45.35;18.15;;;;;;;1.25;82.30;97014.80;1730873;83;21471;-54
2020/12/15 01:11:58;;;;;;;42.17;19.00;;;;;;;1.31;82.52;97007.84;1748036;81;21124;-53
2020/12/15 01:14:26;;;;;;;42.33;19.12;;;;;;;1.41;82.44;97008.81;1760889;81;21405;-55
2020/12/15 01:16:55;;;;;;;;;;;;;;;1.51;82.41;97008.13;1742371;82;21073;-54
2020/12/15 01:19:23;;;;;;;32.65;18.15;;;;;;;1.60;81.96;97015.55;1745158;82;20229;-54
2020/12/15 01:21:50;;;;;;;28.50;17.15;;;;;;;1.55;81.89;97012.73;1725304;83;21195;-55
2020/12/15 01:24:21;;;;;;;22.48;13.88;;;;;;;1.63;82.00;97010.80;1715379;83;21184;-55
2020/12/15 01:27:00;;;;;;;22.70;14.13;;;;;;;1.74;81.55;97015.59;1888640;76;24014;-55
2020/12/15 01:29:29;;;;;;;26.80;16.55;;;;;;;1.66;81.57;97008.13;1769474;80;21149;-56
2020/12/15 01:32:02;;;;;;;25.65;14.73;;;;;;;1.63;81.56;97014.64;1832157;77;21053;-55
2020/12/15 01:34:31;;;;;;;25.70;15.40;;;;;;;1.68;81.54;97013.20;1849803;77;20887;-56
2020/12/15 01:37:04;;;;;;;30.55;16.48;;;;;;;1.73;81.57;97013.49;1827408;77;21502;-55
2020/12/15 01:39:32;;;;;;;26.73;15.30;;;;;;;1.86;81.37;97015.69;1815090;77;21533;-55
2020/12/15 01:42:01;;;;;;;26.97;16.25;;;;;;;1.99;81.19;97002.50;1847811;77;21536;-56
2020/12/15 01:44:29;;;;;;;25.32;15.72;;;;;;;2.11;80.96;97009.42;1829413;77;21379;-56
2020/12/15 01:46:58;;;;;;;27.62;16.45;;;;;;;2.24;80.61;97003.04;1815331;77;21049;-53
2020/12/15 01:49:28;;;;;;;26.85;15.18;;;;;;;2.37;80.16;97002.23;1804335;79;20971;-55
2020/12/15 01:51:59;;;;;;;28.23;16.65;;;;;;;2.42;79.70;97002.91;1814411;79;21505;-55
2020/12/15 01:54:28;;;;;;;26.65;14.95;;;;;;;2.46;79.22;97002.37;1786949;79;21498;-55
2020/12/15 01:56:56;;;;;;;24.02;15.40;;;;;;;2.38;78.61;97000.04;1810324;79;21633;-55
2020/12/15 01:59:34;;;;;;;22.60;14.60;;;;;;;2.29;78.70;97007.58;1874486;75;24663;-55
2020/12/15 02:02:04;;;;;;;26.82;15.48;;;;;;;2.17;78.82;96998.55;1826521;77;21442;-55
2020/12/15 02:04:37;;;;;;;22.85;15.38;;;;;;;2.14;79.00;97008.05;1848647;77;21553;-55
2020/12/15 02:07:07;;;;;;;32.53;16.10;;;;;;;2.21;79.25;97003.96;1840966;77;21034;-55
2020/12/15 02:09:35;;;;;;;29.98;16.10;;;;;;;2.34;79.01;96999.30;1819022;78;21073;-55
2020/12/15 02:12:20;;;;;;;32.57;18.13;;;;;;;2.50;78.81;96998.39;1849536;76;25690;-55
2020/12/15 02:14:48;;;;;;;35.68;18.60;;;;;;;2.54;78.37;97001.68;1782235;78;21539;-55
2020/12/15 02:17:17;;;;;;;30.43;18.95;;;;;;;2.62;78.10;97001.45;1822003;78;22083;-55
2020/12/15 02:20:10;;;;;;;26.17;16.60;;;;;;;2.80;77.75;97004.69;1888638;76;25008;-55
2020/12/15 02:22:51;;;;;;;33.78;18.25;;;;;;;2.82;77.51;97009.77;1766108;80;21160;-54
2020/12/15 02:25:19;;;;;;;33.27;17.30;;;;;;;2.94;77.22;97012.77;1773763;81;21475;-54
2020/12/15 02:27:47;;;;;;;36.95;18.23;;;;;;;3.04;76.77;97011.16;1806527;79;21234;-54
2020/12/15 02:30:16;;;;;;;;;;;;;;;3.04;76.49;97011.16;1843770;77;21100;-54
2020/12/15 02:32:44;;;;;;;44.67;21.63;;;;;;;3.10;76.32;97012.23;1845490;77;20217;-54
2020/12/15 02:35:15;;;;;;;38.15;20.75;;;;;;;3.15;76.08;97012.91;1850192;77;21101;-54
2020/12/15 02:37:43;;;;;;;52.62;26.10;;;;;;;3.17;75.81;97011.13;1819008;77;21185;-55
2020/12/15 02:40:12;;;;;;;43.28;22.07;;;;;;;3.18;75.69;97017.94;1818352;77;21085;-54
2020/12/15 02:42:50;;;;;;;46.87;23.63;;;;;;;3.28;75.73;97010.77;1871010;76;28479;-55
2020/12/15 02:45:19;;;;;;;47.27;21.75;;;;;;;3.31;75.58;97011.95;1815666;78;21071;-55
2020/12/15 02:47:47;;;;;;;41.70;21.00;;;;;;;3.37;75.37;97018.58;1804183;78;21375;-55
2020/12/15 02:50:23;;;;;;;37.60;19.30;;;;;;;3.43;75.12;97017.09;1808726;78;21008;-55
2020/12/15 02:52:53;;;;;;;42.73;20.35;;;;;;;3.45;74.94;97014.02;1812486;78;21130;-55
2020/12/15 02:55:22;;;;;;;38.75;20.50;;;;;;;3.46;74.66;97011.86;1830720;77;21027;-55
2020/12/15 02:57:51;;;;;;;37.35;21.05;;;;;;;3.44;74.47;97013.19;1808637;78;21051;-55
2020/12/15 03:00:19;;;;;;;51.80;23.00;;;;;;;3.40;74.21;97010.78;1807108;78;23608;-55
2020/12/15 03:02:48;;;;;;;49.45;24.67;;;;;;;3.35;74.06;97012.67;1820606;78;21079;-55
2020/12/15 03:05:18;;;;;;;51.55;25.15;;;;;;;3.26;74.15;97013.39;1811331;78;21071;-55
2020/12/15 03:07:45;;;;;;;40.70;21.52;;;;;;;3.25;74.37;97018.11;1812988;78;21107;-54
2020/12/15 03:10:13;;;;;;;40.03;21.50;;;;;;;3.26;74.23;97014.67;1839367;78;21122;-55
2020/12/15 03:12:43;;;;;;;48.70;20.80;;;;;;;3.27;74.21;97019.34;1807690;78;21467;-55
2020/12/15 03:15:13;;;;;;;45.95;21.12;;;;;;;3.29;74.10;97022.72;1827861;78;21176;-54
2020/12/15 03:17:41;;;;;;;49.40;21.57;;;;;;;3.30;73.96;97028.22;1826467;78;21062;-55
2020/12/15 03:20:09;;;;;;;40.78;20.45;;;;;;;3.28;73.85;97028.27;1841474;78;21677;-55
2020/12/15 03:22:39;;;;;;;42.73;20.85;;;;;;;3.26;73.72;97028.77;1813519;78;21078;-55
2020/12/15 03:25:07;;;;;;;42.90;19.92;;;;;;;3.29;73.75;97030.41;1790961;78;22271;-55
2020/12/15 03:27:37;;;;;;;38.92;19.27;;;;;;;3.30;73.69;97029.50;1761457;80;21076;-55
2020/12/15 03:30:05;;;;;;;39.98;19.52;;;;;;;3.33;73.75;97034.98;1756058;80;21163;-55
2020/12/15 03:32:34;;;;;;;41.33;18.85;;;;;;;3.38;73.51;97035.66;1766535;80;21139;-55
2020/12/15 03:35:03;;;;;;;42.93;19.17;;;;;;;3.38;73.28;97037.77;1782351;80;21203;-54
2020/12/15 03:37:31;;;;;;;40.40;18.70;;;;;;;3.34;72.92;97036.22;1755463;80;21343;-54
2020/12/15 03:39:59;;;;;;;40.60;18.90;;;;;;;3.30;72.93;97043.61;1751510;80;21071;-55
2020/12/15 03:42:42;;;;;;;36.97;18.50;;;;;;;3.25;72.83;97037.34;1872308;75;26910;-55
2020/12/15 03:45:10;;;;;;;32.93;18.87;;;;;;;3.06;72.67;97038.43;1826184;78;21035;-55
2020/12/15 03:47:37;;;;;;;35.83;19.30;;;;;;;2.98;73.33;97042.97;1770676;80;21202;-55
2020/12/15 03:50:08;;;;;;;39.40;16.33;;;;;;;2.91;73.48;97042.34;1719164;82;21167;-55
2020/12/15 03:52:38;;;;;;;29.40;16.80;;;;;;;2.84;73.81;97051.55;1738955;82;21033;-55
2020/12/15 03:55:14;;;;;;;25.35;13.25;;;;;;;2.83;74.10;97048.58;1706998;81;21143;-55
2020/12/15 03:57:44;;;;;;;24.05;13.98;;;;;;;2.80;73.88;97046.97;1720085;82;21216;-55
2020/12/15 04:00:20;;;;;;;27.60;12.98;;;;;;;2.65;74.03;97046.16;1746736;80;22171;-55
2020/12/15 04:02:58;;;;;;;22.73;12.90;;;;;;;2.66;74.46;97046.11;1873532;76;26933;-55
2020/12/15 04:05:27;;;;;;;27.42;15.55;;;;;;;2.63;74.53;97053.06;1818962;78;21043;-56
2020/12/15 04:07:56;;;;;;;31.65;15.30;;;;;;;2.71;74.53;97053.23;1836355;78;21571;-55
2020/12/15 04:10:25;;;;;;;;;;;;;;;2.80;74.41;97050.81;1722210;80;21517;-56
2020/12/15 04:12:55;;;;;;;22.13;12.47;;;;;;;2.85;74.41;97054.06;1773642;79;20151;-55
2020/12/15 04:15:24;;;;;;;32.50;14.15;;;;;;;2.80;74.41;97051.27;1766765;81;21096;-54
2020/12/15 04:17:53;;;;;;;23.22;12.60;;;;;;;2.71;74.84;97056.22;1775591;80;21103;-54
2020/12/15 04:20:21;;;;;;;24.82;11.08;;;;;;;2.75;74.88;97059.92;1787859;80;21248;-54
2020/12/15 04:22:49;;;;;;;17.65;10.70;;;;;;;2.83;74.86;97066.52;1781337;79;21084;-54
2020/12/15 04:25:19;;;;;;;16.52;10.10;;;;;;;2.89;74.48;97072.73;1758303;80;21103;-53
2020/12/15 04:27:46;;;;;;;11.15;8.53;;;;;;;2.93;74.24;97069.20;1756857;81;21492;-55
2020/12/15 04:30:15;;;;;;;13.40;9.38;;;;;;;2.86;73.67;97074.97;1762954;80;21057;-54
2020/12/15 04:32:43;;;;;;;15.05;9.30;;;;;;;2.72;73.69;97074.11;1773924;80;22067;-54
2020/12/15 04:35:14;;;;;;;17.45;9.88;;;;;;;2.66;73.95;97072.19;1787187;80;22008;-54
2020/12/15 04:37:44;;;;;;;27.45;10.78;;;;;;;2.64;74.22;97070.12;1761828;80;21536;-57
2020/12/15 04:40:14;;;;;;;33.67;11.65;;;;;;;2.60;74.25;97073.65;1786004;80;21587;-54
2020/12/15 04:42:44;;;;;;;39.58;12.82;;;;;;;2.48;74.39;97072.31;1787163;80;21151;-55
2020/12/15 04:45:12;;;;;;;25.43;10.85;;;;;;;2.46;74.65;97075.37;1778545;79;21423;-55
2020/12/15 04:47:43;;;;;;;28.17;12.23;;;;;;;2.46;74.48;97076.65;1755681;81;21160;-55
2020/12/15 04:50:14;;;;;;;21.87;12.05;;;;;;;2.43;74.71;97082.69;1756390;81;21147;-53
2020/12/15 04:52:56;;;;;;;34.67;10.80;;;;;;;2.47;74.92;97080.90;1785691;80;21072;-54
2020/12/15 04:55:47;;;;;;;25.43;11.47;;;;;;;2.61;74.83;97082.58;1871074;75;25072;-55
2020/12/15 04:58:21;;;;;;;21.05;10.25;;;;;;;2.59;74.76;97085.63;1746389;80;20974;-54
2020/12/15 05:00:50;;;;;;;19.52;8.05;;;;;;;2.59;74.68;97084.35;1771938;81;21553;-54
2020/12/15 05:03:34;;;;;;;25.70;9.10;;;;;;;2.61;74.61;97074.06;1857283;76;25552;-55
2020/12/15 05:06:02;;;;;;;30.25;9.35;;;;;;;2.43;74.76;97084.42;1787902;79;21074;-55
2020/12/15 05:08:29;;;;;;;23.47;9.45;;;;;;;2.36;74.91;97079.92;1828734;77;21542;-56
2020/12/15 05:11:01;;;;;;;17.42;9.53;;;;;;;2.36;75.14;97085.88;1742476;77;20974;-56
2020/12/15 05:13:35;;;;;;;11.63;8.80;;;;;;;2.36;75.05;97086.33;1831353;77;21569;-55
2020/12/15 05:16:02;;;;;;;13.40;8.63;;;;;;;2.38;74.97;97092.23;1821124;77;21066;-54
2020/12/15 05:19:02;;;;;;;17.83;8.73;;;;;;;2.51;75.06;97096.55;1820107;77;24998;-54
2020/12/15 05:21:32;;;;;;;19.20;7.78;;;;;;;2.51;74.91;97099.12;1756584;81;21069;-54
2020/12/15 05:24:02;;;;;;;12.68;8.20;;;;;;;2.51;74.82;97102.96;1747360;81;22105;-54
2020/12/15 05:26:31;;;;;;;15.80;8.85;;;;;;;2.50;74.62;97092.30;1679209;82;21112;-53
2020/12/15 05:29:04;;;;;;;16.12;9.08;;;;;;;2.37;74.32;97100.38;1735291;82;21124;-54
2020/12/15 05:31:40;;;;;;;14.28;9.73;;;;;;;2.20;74.42;97100.02;1748467;81;21533;-54
2020/12/15 05:34:30;;;;;;;15.37;9.93;;;;;;;2.15;75.12;97100.59;1855494;76;26583;-54
2020/12/15 05:37:02;;;;;;;11.48;8.65;;;;;;;2.20;75.34;97092.33;1829336;77;21160;-54
2020/12/15 05:39:49;;;;;;;16.17;7.90;;;;;;;2.31;75.26;97094.59;1850150;77;21790;-55
2020/12/15 05:42:19;;;;;;;13.25;8.60;;;;;;;2.34;74.93;97096.62;1731794;80;21077;-55
2020/12/15 05:44:48;;;;;;;16.37;8.50;;;;;;;2.39;75.07;97091.37;1774584;79;21228;-54
2020/12/15 05:47:22;;;;;;;15.95;8.13;;;;;;;2.47;74.93;97097.09;1781392;79;21073;-54
2020/12/15 05:49:54;;;;;;;20.37;8.28;;;;;;;2.53;74.47;97098.62;1794125;79;21132;-54
2020/12/15 05:52:29;;;;;;;21.82;8.45;;;;;;;2.52;74.21;97099.53;1745686;81;21432;-55
2020/12/15 05:55:05;;;;;;;9.85;7.85;;;;;;;2.51;73.93;97102.50;1772536;79;21061;-55
2020/12/15 05:57:33;;;;;;;14.53;8.45;;;;;;;2.48;73.78;97104.33;1767430;79;21164;-55
2020/12/15 06:00:11;;;;;;;20.23;9.67;;;;;;;2.40;73.87;97108.39;1793047;79;21056;-55
2020/12/15 06:02:42;;;;;;;14.73;10.00;;;;;;;2.36;74.09;97109.38;1766774;81;21268;-55
2020/12/15 06:05:10;;;;;;;;;;;;;;;2.34;73.99;97106.86;1786240;79;21434;-54
2020/12/15 06:07:39;;;;;;;;;;;;;;;2.29;74.15;97112.56;1769240;80;20228;-55
2020/12/15 06:10:06;;;;;;;23.90;9.45;;;;;;;2.25;74.01;97120.37;1775549;79;20218;-56
2020/12/15 06:12:34;;;;;;;16.32;8.60;;;;;;;2.18;74.13;97124.38;1772785;79;21160;-56
2020/12/15 06:15:03;;;;;;;29.90;10.00;;;;;;;2.15;74.11;97119.34;1798753;79;21612;-56
2020/12/15 06:17:31;;;;;;;14.38;8.78;;;;;;;2.09;74.36;97115.70;1783044;79;21198;-55
2020/12/15 06:20:00;;;;;;;;;;;;;;;2.03;74.19;97119.70;1798946;79;21111;-56
2020/12/15 06:22:27;;;;;;;14.53;8.45;;;;;;;1.94;74.60;97119.53;1774127;79;20218;-55
2020/12/15 06:24:59;;;;;;;20.50;9.73;;;;;;;1.97;74.86;97123.70;1795712;79;21084;-54
2020/12/15 06:27:34;;;;;;;31.40;8.90;;;;;;;2.04;75.01;97129.08;1766804;81;21086;-55
2020/12/15 06:30:04;;;;;;;15.13;7.75;;;;;;;2.07;74.85;97124.30;1767392;79;21378;-56
2020/12/15 06:32:32;;;;;;;17.00;7.87;;;;;;;2.06;74.79;97127.75;1787575;80;21628;-55
2020/12/15 06:35:11;;;;;;;19.80;8.18;;;;;;;1.88;75.13;97126.54;1737885;80;21093;-56
2020/12/15 06:37:36;;;;;;;14.50;8.45;;;;;;;1.73;75.30;97126.52;1790055;80;21175;-55
2020/12/15 06:40:06;;;;;;;11.90;8.15;;;;;;;1.56;75.70;97131.63;1789981;80;21121;-55
2020/12/15 06:42:36;;;;;;;19.75;9.00;;;;;;;1.47;76.01;97139.53;1792393;80;21572;-56
2020/12/15 06:45:08;;;;;;;16.70;7.85;;;;;;;1.50;76.30;97143.70;1772141;80;21567;-55
2020/12/15 06:47:36;;;;;;;25.65;8.65;;;;;;;1.62;76.33;97142.95;1773194;80;21101;-55
2020/12/15 06:50:17;;;;;;;12.07;6.75;;;;;;;1.71;75.92;97149.58;1791985;80;21973;-56
2020/12/15 06:55:30;;;;;;;31.07;10.43;;;;;;;1.56;75.79;97147.40;1869064;75;25011;-55
2020/12/15 06:58:00;;;;;;;19.02;7.87;;;;;;;1.53;76.07;97150.89;1789935;77;21087;-56
2020/12/15 07:00:38;;;;;;;18.95;8.60;;;;;;;1.63;75.86;97147.20;1841956;77;22175;-54
2020/12/15 07:03:07;;;;;;;12.60;7.08;;;;;;;1.64;75.93;97148.04;1847220;77;20970;-55
2020/12/15 07:05:39;;;;;;;11.88;6.53;;;;;;;1.78;76.13;97153.64;1821634;78;21581;-55
2020/12/15 07:08:11;;;;;;;12.85;7.72;;;;;;;1.97;75.73;97150.16;1822521;77;21069;-54
2020/12/15 07:10:43;;;;;;;16.10;8.45;;;;;;;1.93;75.39;97151.56;1848095;77;21044;-56
2020/12/15 07:13:11;;;;;;;8.03;6.17;;;;;;;1.93;75.29;97156.68;1764491;79;22109;-56
2020/12/15 07:15:39;;;;;;;9.60;6.97;;;;;;;1.94;75.19;97151.52;1849737;77;21097;-55
2020/12/15 07:18:08;;;;;;;8.25;6.60;;;;;;;1.83;75.02;97151.80;1846315;77;21109;-55
2020/12/15 07:20:36;;;;;;;7.87;6.35;;;;;;;1.75;75.33;97152.89;1850054;77;21613;-55
2020/12/15 07:23:05;;;;;;;7.72;6.05;;;;;;;1.70;75.57;97153.45;1848278;77;21049;-56
2020/12/15 07:25:36;;;;;;;10.10;6.53;;;;;;;1.73;75.63;97155.48;1816512;79;21192;-55
2020/12/15 07:28:04;;;;;;;7.63;6.27;;;;;;;1.81;75.59;97160.41;1818210;77;21080;-57
2020/12/15 07:30:38;;;;;;;8.33;6.42;;;;;;;1.94;75.65;97160.48;1817874;77;21718;-55
2020/12/15 07:33:06;;;;;;;13.35;7.20;;;;;;;2.10;75.48;97162.61;1847197;77;21168;-55
2020/12/15 07:35:34;;;;;;;18.53;6.83;;;;;;;2.25;75.10;97163.91;1816760;78;21057;-54
2020/12/15 07:38:03;;;;;;;19.85;8.55;;;;;;;2.38;75.06;97162.66;1834598;78;21810;-55
2020/12/15 07:40:31;;;;;;;13.40;7.97;;;;;;;2.53;74.76;97167.37;1838187;78;21482;-55
2020/12/15 07:43:00;;;;;;;21.85;7.60;;;;;;;2.62;74.11;97161.58;1823577;77;21545;-55
2020/12/15 07:45:33;;;;;;;33.65;10.53;;;;;;;2.55;74.21;97166.88;1817654;77;21128;-55
2020/12/15 07:48:05;;;;;;;30.02;10.93;;;;;;;2.54;74.28;97174.15;1787366;79;21074;-55
2020/12/15 07:50:34;;;;;;;29.18;10.60;;;;;;;2.52;74.27;97178.94;1791803;79;21199;-54
2020/12/15 07:53:09;;;;;;;21.85;10.60;;;;;;;2.61;74.52;97173.52;1784733;79;21110;-55
2020/12/15 07:55:37;;;;;;;21.42;8.38;;;;;;;2.81;74.29;97166.97;1805843;79;21184;-56
2020/12/15 07:58:15;;;;;;;26.87;10.23;;;;;;;2.98;73.72;97167.73;1804359;79;21855;-55
2020/12/15 08:00:42;;;;;;;39.95;11.85;;;;;;;3.06;73.30;97168.33;1780570;80;21463;-55
2020/12/15 08:03:10;;;;;;;53.15;13.90;;;;;;;3.15;73.01;97173.18;1780591;80;21691;-55
2020/12/15 08:05:38;;;;;;;25.02;10.28;;;;;;;3.28;72.80;97172.35;1780075;80;21623;-55
2020/12/15 08:08:07;;;;;;;31.93;12.03;;;;;;;3.34;72.31;97169.59;1800844;79;21165;-55
2020/12/15 08:10:36;;;;;;;35.17;11.23;;;;;;;3.20;72.52;97176.88;1777928;79;21620;-56
2020/12/15 08:13:06;;;;;;;13.00;9.23;;;;;;;3.24;72.74;97176.75;1806616;79;21656;-55
2020/12/15 08:15:40;;;;;;;14.33;9.23;;;;;;;3.37;72.54;97178.48;1806719;78;21184;-54
2020/12/15 08:18:11;;;;;;;17.92;9.55;;;;;;;3.50;72.24;97182.74;1806589;79;21137;-55
2020/12/15 08:20:41;;;;;;;23.15;9.35;;;;;;;3.62;71.87;97177.22;1780042;79;21137;-54
2020/12/15 08:23:13;;;;;;;15.55;9.48;;;;;;;3.69;71.30;97185.55;1806456;79;21125;-54
2020/12/15 08:25:44;;;;;;;24.30;10.35;;;;;;;3.69;71.39;97177.85;1806496;79;21042;-55
2020/12/15 08:28:21;;;;;;;23.87;11.48;;;;;;;3.79;71.27;97181.78;1803097;79;21628;-55
2020/12/15 08:30:54;;;;;;;21.37;10.60;;;;;;;3.95;71.10;97180.81;1782415;80;21601;-56
2020/12/15 08:33:29;;;;;;;32.25;11.48;;;;;;;4.11;70.75;97182.41;1765429;80;21065;-55
2020/12/15 08:35:59;;;;;;;38.28;12.20;;;;;;;4.18;70.42;97184.32;1765347;80;21140;-56
2020/12/15 08:38:27;;;;;;;35.23;12.47;;;;;;;4.24;70.17;97182.37;1804983;79;21120;-56
2020/12/15 08:40:59;;;;;;;28.38;12.82;;;;;;;4.35;69.79;97187.56;1806859;79;21785;-56
2020/12/15 08:43:28;;;;;;;42.53;12.78;;;;;;;4.34;69.45;97184.16;1806641;79;21124;-56
2020/12/15 08:45:56;;;;;;;;;;;;;;;4.34;69.57;97187.16;1809377;79;21161;-54
2020/12/15 08:48:25;;;;;;;19.60;11.12;;;;;;;4.38;69.63;97187.00;1806713;78;20497;-56
2020/12/15 08:50:53;;;;;;;19.12;11.22;;;;;;;4.42;69.52;97184.72;1806871;78;21058;-55
2020/12/15 08:53:21;;;;;;;29.50;14.63;;;;;;;4.46;69.47;97184.16;1806940;79;21444;-56
2020/12/15 08:55:49;;;;;;;29.42;13.15;;;;;;;4.52;69.44;97186.94;1807162;79;21105;-56
2020/12/15 08:58:18;;;;;;;25.95;14.35;;;;;;;4.57;69.46;97184.61;1805815;79;21113;-56
2020/12/15 09:00:46;;;;;;;26.20;14.73;;;;;;;4.64;69.22;97181.36;1804262;79;21772;-55
2020/12/15 09:03:18;;;;;;;28.65;14.40;;;;;;;4.68;69.05;97182.91;1809725;79;26364;-55
2020/12/15 09:05:51;;;;;;;30.88;14.75;;;;;;;4.71;68.78;97178.94;1809576;79;21366;-54
2020/12/15 09:08:20;;;;;;;27.35;15.03;;;;;;;4.75;68.59;97180.94;1809571;79;21179;-55
2020/12/15 09:10:49;;;;;;;26.05;14.25;;;;;;;4.74;68.56;97180.11;1809595;79;21121;-55
2020/12/15 09:13:17;;;;;;;23.38;12.50;;;;;;;4.76;68.57;97187.31;1807797;79;21082;-56
2020/12/15 09:15:51;;;;;;;22.07;14.40;;;;;;;4.82;68.45;97181.55;1808209;79;21181;-56
2020/12/15 09:18:33;;;;;;;25.35;15.80;;;;;;;4.83;68.46;97179.38;1809514;79;21246;-55
2020/12/15 09:21:16;;;;;;;26.65;16.25;;;;;;;4.86;68.48;97181.37;1766994;79;21044;-56
2020/12/15 09:23:52;;;;;;;25.05;16.42;;;;;;;4.85;67.98;97177.14;1761572;81;21079;-55
2020/12/15 09:26:23;;;;;;;26.97;17.20;;;;;;;4.78;68.23;97180.83;1761581;81;21092;-55
2020/12/15 09:28:50;;;;;;;25.62;18.27;;;;;;;4.69;67.88;97180.73;1769680;79;21032;-55
2020/12/15 09:31:19;;;;;;;29.17;18.03;;;;;;;4.52;68.04;97181.80;1780376;80;22266;-54
2020/12/15 09:33:47;;;;;;;;;;;;;;;4.31;68.57;97178.27;1782722;80;21175;-55
2020/12/15 09:36:15;;;;;;;26.73;18.17;;;;;;;4.19;69.14;97181.70;1780091;80;20264;-55
2020/12/15 09:38:46;;;;;;;37.50;19.45;;;;;;;4.11;69.29;97176.42;1780272;80;21068;-55
2020/12/15 09:41:13;;;;;;;29.02;18.12;;;;;;;4.09;69.72;97186.74;1780092;80;21064;-56
2020/12/15 09:43:40;;;;;;;48.10;25.05;;;;;;;4.05;69.78;97173.17;1789747;79;21443;-56
2020/12/15 09:46:08;;;;;;;48.58;24.52;;;;;;;4.02;69.93;97180.98;1808156;79;21101;-56
2020/12/15 09:48:36;;;;;;;47.67;22.15;;;;;;;3.97;70.22;97175.63;1808676;79;21121;-55
2020/12/15 09:51:04;;;;;;;46.53;24.77;;;;;;;4.02;70.46;97170.71;1809743;79;21490;-55
2020/12/15 09:53:34;;;;;;;56.92;26.48;;;;;;;4.18;70.30;97169.73;1809606;79;21061;-56
2020/12/15 09:56:02;;;;;;;44.77;24.05;;;;;;;4.33;70.20;97170.91;1809307;79;21506;-54
2020/12/15 09:58:31;;;;;;;33.63;21.30;;;;;;;4.45;70.12;97169.62;1805703;79;21093;-56
2020/12/15 10:01:03;;;;;;;32.33;20.12;;;;;;;4.56;69.98;97166.21;1803530;79;21458;-55
2020/12/15 10:03:32;;;;;;;41.15;21.45;;;;;;;4.66;69.73;97160.28;1807259;79;21494;-55
2020/12/15 10:06:01;;;;;;;46.75;26.55;;;;;;;4.71;69.67;97153.23;1807244;79;21077;-54
2020/12/15 10:08:30;;;;;;;48.35;24.25;;;;;;;4.66;69.45;97153.86;1804294;79;21280;-54
2020/12/15 10:10:59;;;;;;;55.50;26.05;;;;;;;4.64;69.58;97153.08;1807294;79;21117;-55
2020/12/15 10:13:27;;;;;;;43.90;23.73;;;;;;;4.64;69.64;97153.08;1807800;79;21256;-56
2020/12/15 10:15:57;;;;;;;25.10;16.65;;;;;;;4.67;69.67;97150.41;1781450;79;21180;-56
2020/12/15 10:18:25;;;;;;;22.65;13.95;;;;;;;4.61;69.44;97151.45;1809646;79;26377;-55
2020/12/15 10:20:53;;;;;;;22.40;15.38;;;;;;;4.50;69.86;97151.02;1809482;79;21042;-55
2020/12/15 10:23:21;;;;;;;13.10;10.35;;;;;;;4.48;70.29;97146.84;1809417;79;21058;-56
2020/12/15 10:25:49;;;;;;;15.40;8.93;;;;;;;4.51;70.16;97150.59;1809668;79;21129;-55
2020/12/15 10:28:16;;;;;;;14.28;10.85;;;;;;;4.47;70.34;97155.44;1808937;79;21185;-54
2020/12/15 10:30:44;;;;;;;21.97;12.55;;;;;;;4.34;70.38;97149.48;1807228;79;21073;-55
2020/12/15 10:33:11;;;;;;;15.70;8.73;;;;;;;4.22;70.35;97145.59;1782394;79;21394;-56
2020/12/15 10:35:39;;;;;;;19.37;11.03;;;;;;;3.99;70.66;97148.16;1807084;79;21078;-54
2020/12/15 10:38:07;;;;;;;10.68;7.97;;;;;;;3.78;71.41;97140.76;1807147;79;21117;-54
2020/12/15 10:40:34;;;;;;;12.58;8.95;;;;;;;3.73;72.03;97142.19;1782621;79;21161;-55
2020/12/15 10:43:03;;;;;;;14.05;9.45;;;;;;;3.66;72.65;97140.28;1807062;79;21070;-55
2020/12/15 10:45:30;;;;;;;12.85;9.23;;;;;;;3.66;72.84;97142.02;1807187;79;21179;-55
2020/12/15 10:47:58;;;;;;;14.10;9.53;;;;;;;3.80;72.80;97138.55;1806919;79;21101;-56
2020/12/15 10:50:26;;;;;;;16.12;8.60;;;;;;;3.98;72.52;97142.20;1807148;79;21105;-56
2020/12/15 10:52:55;;;;;;;18.80;9.23;;;;;;;4.11;71.75;97137.47;1807113;79;21085;-55
2020/12/15 10:55:24;;;;;;;16.23;9.78;;;;;;;3.89;71.73;97137.38;1806994;79;21051;-55
2020/12/15 10:57:52;;;;;;;15.55;9.28;;;;;;;3.78;72.50;97133.91;1808452;79;21385;-54
2020/12/15 11:00:19;;;;;;;25.30;11.70;;;;;;;3.77;72.42;97131.40;1777479;80;21537;-55
2020/12/15 11:02:47;;;;;;;18.55;9.98;;;;;;;3.75;72.99;97137.01;1777475;80;21156;-55
2020/12/15 11:05:15;;;;;;;16.85;10.38;;;;;;;3.89;73.17;97133.98;1777511;80;21633;-55
2020/12/15 11:07:43;;;;;;;16.67;10.48;;;;;;;4.03;73.03;97124.89;1777476;80;21124;-55
2020/12/15 11:10:11;;;;;;;15.13;9.57;;;;;;;4.20;72.45;97130.70;1782973;80;21516;-55
2020/12/15 11:12:39;;;;;;;21.10;11.10;;;;;;;4.30;72.26;97125.23;1782967;80;21130;-55
2020/12/15 11:15:07;;;;;;;18.37;10.60;;;;;;;4.43;72.09;97111.86;1805980;79;21529;-55
2020/12/15 11:17:35;;;;;;;17.10;12.03;;;;;;;4.49;71.45;97115.09;1807386;79;21612;-55
2020/12/15 11:20:03;;;;;;;15.50;10.80;;;;;;;4.29;71.48;97113.27;1807126;79;21045;-55
2020/12/15 11:22:32;;;;;;;17.25;12.13;;;;;;;4.16;71.85;97115.45;1807218;79;21366;-55
2020/12/15 11:25:00;;;;;;;16.03;10.60;;;;;;;4.08;72.40;97118.31;1807348;79;21069;-56
2020/12/15 11:27:28;;;;;;;19.50;12.58;;;;;;;3.92;72.75;97112.88;1807143;79;21152;-54
2020/12/15 11:29:55;;;;;;;16.35;10.15;;;;;;;3.78;73.30;97120.22;1806978;79;21184;-55
2020/12/15 11:32:25;;;;;;;17.42;11.97;;;;;;;3.69;73.53;97117.08;1806159;79;21160;-56
2020/12/15 11:34:53;;;;;;;22.27;12.82;;;;;;;3.62;73.84;97112.23;1807128;79;21370;-55
2020/12/15 11:37:20;;;;;;;20.08;11.35;;;;;;;3.69;74.13;97118.82;1807080;79;21998;-55
2020/12/15 11:39:49;;;;;;;18.48;11.93;;;;;;;3.82;74.02;97120.06;1757377;79;21097;-55
2020/12/15 11:42:18;;;;;;;17.80;11.85;;;;;;;4.01;73.75;97116.42;1807306;79;21117;-55
2020/12/15 11:44:47;;;;;;;18.77;12.40;;;;;;;4.08;73.44;97120.88;1805856;79;21144;-54